Time;durP1;ratioP1;P1;durP2;ratioP2;P2;SDS_P1;SDS_P2;PMS_P1;PMS_P2;Temp;Humidity;BMP_temperature;BMP_pressure;BME280_temperature;BME280_humidity;BME280_pressure;Samples;Min_cycle;Max_cycle;Signal;HPM_P1;HPM_P2
2020/12/22 05:00:24;;;;;;;1.30;0.32;;;9.70;99.90;;;;;;5950542;23;20248;-68
2020/12/22 05:02:52;;;;;;;0.60;0.60;;;9.80;99.90;;;;;;4914343;29;20309;-68
2020/12/22 05:05:19;;;;;;;0.22;0.22;;;9.80;99.90;;;;;;4915408;29;20556;-68
2020/12/22 05:07:45;;;;;;;0.40;0.40;;;9.80;99.90;;;;;;4915469;29;20246;-68
2020/12/22 05:10:13;;;;;;;0.50;0.50;;;9.80;99.90;;;;;;4914598;29;20214;-68
2020/12/22 05:12:41;;;;;;;0.25;0.25;;;9.80;99.90;;;;;;4915607;29;20199;-69
2020/12/22 05:15:09;;;;;;;0.30;0.30;;;9.80;99.90;;;;;;4914996;29;20218;-68
2020/12/22 05:17:41;;;;;;;0.50;0.50;;;9.80;99.90;;;;;;4915707;29;20565;-70
2020/12/22 05:20:11;;;;;;;0.40;0.40;;;9.80;99.90;;;;;;4914843;29;20686;-68
2020/12/22 05:22:37;;;;;;;0.25;0.25;;;9.90;99.90;;;;;;4915096;29;20277;-70
2020/12/22 05:25:04;;;;;;;0.40;0.40;;;9.90;99.90;;;;;;4918741;29;20211;-70
2020/12/22 05:27:31;;;;;;;0.95;0.40;;;9.90;99.90;;;;;;4919122;29;20207;-70
2020/12/22 05:29:59;;;;;;;0.50;0.50;;;10.00;99.90;;;;;;4917328;29;20297;-69
2020/12/22 05:32:26;;;;;;;0.30;0.30;;;10.00;99.90;;;;;;4919381;29;20230;-70
2020/12/22 05:34:53;;;;;;;0.47;0.47;;;10.00;99.90;;;;;;4919115;29;20228;-69
2020/12/22 05:37:23;;;;;;;0.40;0.40;;;10.00;99.90;;;;;;4919465;29;20206;-69
2020/12/22 05:39:50;;;;;;;0.40;0.40;;;10.00;99.90;;;;;;4917570;29;20302;-70
2020/12/22 05:42:17;;;;;;;0.40;0.40;;;10.00;99.90;;;;;;4918107;29;20329;-68
2020/12/22 05:44:47;;;;;;;0.30;0.30;;;10.10;99.90;;;;;;4919279;29;20214;-68
2020/12/22 05:47:16;;;;;;;0.50;0.50;;;10.20;99.90;;;;;;4919161;29;20310;-68
2020/12/22 05:49:53;;;;;;;0.88;0.88;;;10.20;99.90;;;;;;4918594;29;20203;-68
2020/12/22 05:52:23;;;;;;;0.80;0.80;;;10.30;99.90;;;;;;4917600;29;20231;-69
2020/12/22 05:54:51;;;;;;;0.82;0.82;;;10.30;99.90;;;;;;4918475;29;20250;-68
2020/12/22 05:57:21;;;;;;;0.95;0.95;;;10.30;99.90;;;;;;4918753;29;20202;-68
2020/12/22 05:59:48;;;;;;;1.10;1.10;;;10.40;99.90;;;;;;4919224;29;20210;-70
2020/12/22 06:02:24;;;;;;;1.88;1.58;;;10.40;99.90;;;;;;4917610;29;20230;-69
2020/12/22 06:04:51;;;;;;;3.25;1.80;;;10.40;99.90;;;;;;4919094;29;20210;-69
2020/12/22 06:07:19;;;;;;;2.30;1.63;;;10.40;99.90;;;;;;4918632;29;20526;-70
2020/12/22 06:09:45;;;;;;;1.27;1.27;;;10.50;99.90;;;;;;4917823;29;20619;-69
2020/12/22 06:12:11;;;;;;;1.17;1.17;;;10.50;99.90;;;;;;4917937;29;20744;-69
2020/12/22 06:14:42;;;;;;;1.38;1.38;;;10.60;99.90;;;;;;4918796;29;20215;-69
2020/12/22 06:17:11;;;;;;;1.20;1.20;;;10.60;99.90;;;;;;4918712;29;20207;-69
2020/12/22 06:19:38;;;;;;;1.50;1.48;;;10.60;99.90;;;;;;4918319;29;20219;-69
2020/12/22 06:22:05;;;;;;;2.00;1.90;;;10.70;99.90;;;;;;4917781;29;20230;-69
2020/12/22 06:24:32;;;;;;;1.70;1.70;;;10.80;99.90;;;;;;4918150;29;20210;-69
2020/12/22 06:27:01;;;;;;;1.70;1.70;;;10.80;99.90;;;;;;4916050;29;20207;-69
2020/12/22 06:29:28;;;;;;;2.22;2.15;;;10.80;99.90;;;;;;4917775;29;20211;-69
2020/12/22 06:31:54;;;;;;;2.22;2.20;;;10.90;99.90;;;;;;4917725;29;20226;-69
2020/12/22 06:34:24;;;;;;;1.80;1.80;;;10.90;99.90;;;;;;4917585;29;20688;-69
2020/12/22 06:36:58;;;;;;;3.58;2.38;;;10.90;99.90;;;;;;4918687;29;20227;-69
2020/12/22 06:39:41;;;;;;;2.08;2.05;;;10.90;99.90;;;;;;4917262;29;20217;-69
2020/12/22 06:42:08;;;;;;;2.35;2.35;;;11.00;99.90;;;;;;4917153;29;20222;-69
2020/12/22 06:44:35;;;;;;;3.25;3.15;;;11.10;99.90;;;;;;4917502;29;20213;-69
2020/12/22 06:47:03;;;;;;;2.83;2.72;;;11.10;99.90;;;;;;4918522;29;20604;-69
2020/12/22 06:49:51;;;;;;;3.13;3.03;;;11.20;99.90;;;;;;4917575;29;20285;-69
2020/12/22 06:52:36;;;;;;;2.90;2.80;;;11.20;99.90;;;;;;4916611;29;20270;-70
2020/12/22 06:55:05;;;;;;;2.70;2.60;;;11.30;99.90;;;;;;4914171;29;20226;-70
2020/12/22 06:57:42;;;;;;;3.15;3.05;;;11.40;99.90;;;;;;4918440;29;20210;-69
2020/12/22 07:00:09;;;;;;;2.30;2.20;;;11.40;99.90;;;;;;4914776;29;20320;-70
2020/12/22 07:02:36;;;;;;;2.60;2.50;;;11.40;99.90;;;;;;4916883;29;20276;-70
2020/12/22 07:05:04;;;;;;;2.80;2.60;;;11.40;99.90;;;;;;4916500;29;20262;-70
2020/12/22 07:07:55;;;;;;;2.70;2.55;;;11.40;99.90;;;;;;4917365;29;20211;-70
2020/12/22 07:10:23;;;;;;;2.90;2.80;;;11.50;99.90;;;;;;4915711;29;20309;-70
2020/12/22 07:12:50;;;;;;;2.83;2.72;;;11.60;99.90;;;;;;4917486;29;20211;-70
2020/12/22 07:15:19;;;;;;;2.60;2.50;;;11.60;99.90;;;;;;4917001;29;20210;-70
2020/12/22 07:17:45;;;;;;;2.20;2.10;;;11.60;99.90;;;;;;4916958;29;20261;-70
2020/12/22 07:20:12;;;;;;;2.65;2.55;;;11.70;99.90;;;;;;4916483;29;20217;-69
2020/12/22 07:22:38;;;;;;;2.55;2.35;;;11.70;99.90;;;;;;4917432;29;20226;-68
2020/12/22 07:25:04;;;;;;;2.40;2.30;;;11.70;99.90;;;;;;4916490;29;20611;-68
2020/12/22 07:27:32;;;;;;;1.88;1.88;;;11.70;99.90;;;;;;4917507;29;20218;-69
2020/12/22 07:29:58;;;;;;;2.47;2.30;;;11.80;99.90;;;;;;4916472;29;20271;-68
2020/12/22 07:32:24;;;;;;;2.15;2.05;;;11.80;99.90;;;;;;4917465;29;20222;-67
2020/12/22 07:34:51;;;;;;;2.83;2.63;;;11.80;99.90;;;;;;4917397;29;20262;-68
2020/12/22 07:37:17;;;;;;;2.35;2.25;;;11.80;99.90;;;;;;4917523;29;20211;-68
2020/12/22 07:39:43;;;;;;;2.00;2.00;;;11.80;99.90;;;;;;4915959;29;20207;-69
2020/12/22 07:42:11;;;;;;;5.07;2.63;;;11.80;99.90;;;;;;4917019;29;20233;-69
2020/12/22 07:44:38;;;;;;;2.92;2.83;;;11.90;99.90;;;;;;4916822;29;20210;-69
2020/12/22 07:47:05;;;;;;;2.15;2.15;;;11.90;99.90;;;;;;4916742;29;20211;-68
2020/12/22 07:49:31;;;;;;;2.33;2.30;;;11.90;99.90;;;;;;4915641;29;20207;-68
2020/12/22 07:51:57;;;;;;;1.70;1.60;;;11.90;99.90;;;;;;4916961;29;20229;-68
2020/12/22 07:54:26;;;;;;;1.60;1.60;;;11.90;99.90;;;;;;4915226;29;20376;-69
2020/12/22 07:56:52;;;;;;;1.88;1.88;;;11.90;99.90;;;;;;4912868;29;20573;-69
2020/12/22 07:59:19;;;;;;;2.25;2.15;;;11.90;99.90;;;;;;4912445;29;20330;-69
2020/12/22 08:01:47;;;;;;;2.30;2.28;;;11.90;99.90;;;;;;4914741;29;20329;-69
2020/12/22 08:04:15;;;;;;;2.60;2.50;;;11.90;99.90;;;;;;4916068;29;20585;-70
2020/12/22 08:06:42;;;;;;;1.65;1.65;;;11.90;99.90;;;;;;4916084;29;20647;-69
2020/12/22 08:09:08;;;;;;;2.30;2.20;;;11.90;99.90;;;;;;4908466;29;20219;-69
2020/12/22 08:11:35;;;;;;;1.65;1.55;;;11.90;99.90;;;;;;4908968;29;20231;-69
2020/12/22 08:14:02;;;;;;;2.25;1.70;;;12.00;99.90;;;;;;4915634;29;20210;-69
2020/12/22 08:16:31;;;;;;;1.25;1.25;;;12.00;99.90;;;;;;4913943;29;20686;-69
2020/12/22 08:18:59;;;;;;;1.52;1.42;;;12.00;99.90;;;;;;4913591;29;20266;-69
2020/12/22 08:21:26;;;;;;;1.00;1.00;;;12.00;99.90;;;;;;4914654;29;20226;-69
2020/12/22 08:23:53;;;;;;;1.30;0.90;;;12.00;99.90;;;;;;4914884;29;20230;-68
2020/12/22 08:26:20;;;;;;;1.10;1.10;;;12.00;99.90;;;;;;4914320;29;20796;-68
2020/12/22 08:28:53;;;;;;;1.10;1.10;;;12.00;99.90;;;;;;4914948;29;20217;-69
2020/12/22 08:31:23;;;;;;;0.80;0.80;;;12.00;99.90;;;;;;4897752;29;20231;-70
2020/12/22 08:33:55;;;;;;;0.90;0.90;;;12.10;99.90;;;;;;4913979;29;20202;-69
2020/12/22 08:36:25;;;;;;;0.52;0.52;;;12.10;99.90;;;;;;4915690;29;20230;-70
2020/12/22 08:38:52;;;;;;;0.70;0.70;;;12.10;99.90;;;;;;4901600;29;20211;-69
2020/12/22 08:41:21;;;;;;;0.60;0.60;;;12.10;99.90;;;;;;4914411;29;20309;-71
2020/12/22 08:43:51;;;;;;;0.95;0.95;;;12.20;99.90;;;;;;4914665;29;20285;-70
2020/12/22 08:46:19;;;;;;;0.70;0.70;;;12.20;99.90;;;;;;4914182;29;20655;-72
2020/12/22 08:48:46;;;;;;;1.00;0.88;;;12.20;99.90;;;;;;4914644;29;20202;-71
2020/12/22 08:51:23;;;;;;;1.13;1.13;;;12.20;99.90;;;;;;4914086;29;20238;-69
2020/12/22 08:53:52;;;;;;;1.25;1.17;;;12.20;99.90;;;;;;4914302;29;20199;-70
2020/12/22 08:56:22;;;;;;;1.85;0.90;;;12.20;99.90;;;;;;4914512;29;20345;-70
2020/12/22 08:58:53;;;;;;;0.95;0.95;;;12.30;99.90;;;;;;4913524;29;20221;-71
2020/12/22 09:01:20;;;;;;;1.73;1.65;;;12.30;99.90;;;;;;4914807;29;20227;-69
2020/12/22 09:03:52;;;;;;;0.90;0.90;;;12.30;99.90;;;;;;4915266;29;20227;-70
2020/12/22 09:06:18;;;;;;;1.30;1.30;;;12.30;99.90;;;;;;4915059;29;20213;-70
2020/12/22 09:08:45;;;;;;;2.47;1.38;;;12.30;99.90;;;;;;4914592;29;20210;-69
2020/12/22 09:11:19;;;;;;;0.75;0.75;;;12.30;99.90;;;;;;4913256;29;20258;-70
2020/12/22 09:13:45;;;;;;;0.82;0.82;;;12.30;99.90;;;;;;4914827;29;20210;-71
2020/12/22 09:16:11;;;;;;;1.15;1.15;;;12.30;99.90;;;;;;4915221;29;20222;-71
2020/12/22 09:18:38;;;;;;;1.48;1.40;;;12.40;99.90;;;;;;4914137;29;20218;-71
2020/12/22 09:21:05;;;;;;;1.20;1.20;;;12.40;99.90;;;;;;4914926;29;20292;-71
2020/12/22 09:23:31;;;;;;;1.05;0.82;;;12.40;99.90;;;;;;4914743;29;20727;-70
2020/12/22 09:25:57;;;;;;;1.13;1.13;;;12.50;99.90;;;;;;4913970;29;20667;-73
2020/12/22 09:28:24;;;;;;;1.10;1.10;;;12.50;99.90;;;;;;4914931;29;20226;-71
2020/12/22 09:30:50;;;;;;;1.08;1.08;;;12.50;99.90;;;;;;4914950;29;20702;-71
2020/12/22 09:33:16;;;;;;;0.95;0.95;;;12.40;99.90;;;;;;4914643;29;20301;-71
2020/12/22 09:35:43;;;;;;;0.98;0.98;;;12.50;99.90;;;;;;4915052;29;20689;-71
2020/12/22 09:38:09;;;;;;;1.00;1.00;;;12.50;99.90;;;;;;4914615;29;20211;-70
2020/12/22 09:40:35;;;;;;;1.20;1.20;;;12.50;99.90;;;;;;4913812;29;20234;-70
2020/12/22 09:43:01;;;;;;;1.27;1.25;;;12.50;99.90;;;;;;4913920;29;20222;-70
2020/12/22 09:45:28;;;;;;;2.20;2.20;;;12.60;99.90;;;;;;4914683;29;20353;-70
2020/12/22 09:47:54;;;;;;;2.25;2.15;;;12.60;99.90;;;;;;4914225;29;20198;-70
2020/12/22 09:50:20;;;;;;;2.78;1.65;;;12.50;99.90;;;;;;4907912;29;20218;-70
2020/12/22 09:52:46;;;;;;;1.52;1.52;;;12.50;99.90;;;;;;4914702;29;20199;-70
2020/12/22 09:55:13;;;;;;;2.50;2.50;;;12.50;99.90;;;;;;4913918;29;20217;-70
2020/12/22 09:57:39;;;;;;;1.33;1.33;;;12.60;99.90;;;;;;4914550;29;20217;-71
2020/12/22 10:00:05;;;;;;;1.83;1.83;;;12.60;99.90;;;;;;4913418;29;20266;-70
2020/12/22 10:02:32;;;;;;;1.90;1.90;;;12.60;99.90;;;;;;4913221;29;20230;-70
2020/12/22 10:04:58;;;;;;;1.30;1.30;;;12.60;99.90;;;;;;4914749;29;20566;-70
2020/12/22 10:07:24;;;;;;;1.30;1.30;;;12.60;99.90;;;;;;4914399;29;20675;-70
2020/12/22 10:09:50;;;;;;;1.10;1.10;;;12.60;99.90;;;;;;4914946;29;20253;-71
2020/12/22 10:12:16;;;;;;;2.00;1.67;;;12.60;99.90;;;;;;4917736;29;20285;-69
2020/12/22 10:14:43;;;;;;;1.00;1.00;;;12.60;99.90;;;;;;4917795;29;20234;-70
2020/12/22 10:17:09;;;;;;;1.08;1.08;;;12.60;99.90;;;;;;4914936;29;20335;-70
2020/12/22 10:19:36;;;;;;;1.48;0.85;;;12.70;99.90;;;;;;4917319;29;20210;-70
2020/12/22 10:22:02;;;;;;;0.77;0.77;;;12.70;99.90;;;;;;4917522;29;20275;-69
2020/12/22 10:24:28;;;;;;;0.90;0.90;;;12.70;99.90;;;;;;4916547;29;20203;-70
2020/12/22 10:26:54;;;;;;;0.90;0.90;;;12.70;99.90;;;;;;4918072;29;20289;-70
2020/12/22 10:29:20;;;;;;;1.15;1.00;;;12.70;99.90;;;;;;4916354;29;20215;-69
2020/12/22 10:31:46;;;;;;;0.98;0.98;;;12.70;99.90;;;;;;4916790;29;20246;-70
2020/12/22 10:34:12;;;;;;;1.00;1.00;;;12.70;99.90;;;;;;4917685;29;20207;-70
2020/12/22 10:36:39;;;;;;;0.93;0.93;;;12.80;99.90;;;;;;4917617;29;20218;-70
2020/12/22 10:39:05;;;;;;;1.77;1.20;;;12.80;99.90;;;;;;4916222;29;20249;-70
2020/12/22 10:41:34;;;;;;;1.20;1.20;;;12.80;99.90;;;;;;4917449;29;20631;-70
2020/12/22 10:44:00;;;;;;;1.48;1.45;;;12.70;99.90;;;;;;4916839;29;20241;-71
2020/12/22 10:46:27;;;;;;;1.38;1.38;;;12.80;99.90;;;;;;4917751;29;20548;-71
2020/12/22 10:48:53;;;;;;;1.25;1.25;;;12.80;99.90;;;;;;4917204;29;20549;-71
2020/12/22 10:51:19;;;;;;;1.20;1.20;;;12.70;99.90;;;;;;4917292;29;20234;-70
2020/12/22 10:53:46;;;;;;;1.15;1.05;;;12.70;99.90;;;;;;4916749;29;20195;-70
2020/12/22 10:56:13;;;;;;;1.23;1.13;;;12.80;99.90;;;;;;4916331;29;20270;-71
2020/12/22 10:58:41;;;;;;;0.90;0.90;;;12.70;99.90;;;;;;4916639;29;20353;-71
2020/12/22 11:01:07;;;;;;;1.35;1.35;;;12.70;99.90;;;;;;4916804;29;20606;-70
2020/12/22 11:03:34;;;;;;;1.17;1.17;;;12.70;99.90;;;;;;4916247;29;20675;-72
2020/12/22 11:06:18;;;;;;;1.38;1.38;;;12.80;99.90;;;;;;4916575;29;20210;-70
2020/12/22 11:08:46;;;;;;;1.38;0.90;;;12.70;99.90;;;;;;4916857;29;20206;-70
2020/12/22 11:11:12;;;;;;;1.10;1.10;;;12.70;99.90;;;;;;4916326;29;20225;-69
2020/12/22 11:13:38;;;;;;;1.10;1.10;;;12.80;99.90;;;;;;4916398;29;20678;-70
2020/12/22 11:16:06;;;;;;;1.20;1.20;;;12.90;99.90;;;;;;4916852;29;20680;-70
2020/12/22 11:18:33;;;;;;;1.50;1.50;;;12.90;99.90;;;;;;4914399;29;20253;-70
2020/12/22 11:20:59;;;;;;;1.10;1.10;;;12.90;99.90;;;;;;4915965;29;20297;-70
2020/12/22 11:23:25;;;;;;;1.38;1.38;;;12.90;99.90;;;;;;4909980;29;20723;-70
2020/12/22 11:25:52;;;;;;;1.35;1.25;;;12.90;99.90;;;;;;4915707;29;20215;-70
2020/12/22 11:28:18;;;;;;;1.15;1.15;;;12.80;99.90;;;;;;4915668;29;20206;-70
2020/12/22 11:30:44;;;;;;;1.17;1.17;;;12.80;99.90;;;;;;4916971;29;20234;-71
2020/12/22 11:33:10;;;;;;;1.42;1.42;;;12.90;99.90;;;;;;4916260;29;20203;-70
2020/12/22 11:35:37;;;;;;;1.10;1.10;;;12.90;99.90;;;;;;4916543;29;20211;-71
2020/12/22 11:38:03;;;;;;;1.20;1.10;;;12.90;99.90;;;;;;4910214;29;20687;-71
2020/12/22 11:40:29;;;;;;;1.08;1.02;;;12.80;99.90;;;;;;4924345;29;20230;-71
2020/12/22 11:42:56;;;;;;;1.13;1.13;;;12.80;99.90;;;;;;4916736;29;20294;-71
2020/12/22 11:45:22;;;;;;;1.17;1.10;;;12.80;99.90;;;;;;4926187;29;20265;-72
2020/12/22 11:47:48;;;;;;;1.20;1.10;;;12.90;99.90;;;;;;4915282;29;20226;-71
2020/12/22 11:50:14;;;;;;;1.55;1.55;;;12.90;99.90;;;;;;4916107;29;20525;-72
2020/12/22 11:52:41;;;;;;;0.85;0.85;;;12.90;99.90;;;;;;4915780;29;20575;-71
2020/12/22 11:55:07;;;;;;;2.50;0.98;;;12.80;99.90;;;;;;4914560;29;20282;-71
2020/12/22 11:57:33;;;;;;;0.90;0.90;;;12.80;99.90;;;;;;4915340;29;20207;-72
2020/12/22 12:00:00;;;;;;;1.00;1.00;;;12.70;99.90;;;;;;4916391;29;20402;-72
2020/12/22 12:02:26;;;;;;;0.85;0.85;;;12.70;99.90;;;;;;4915373;29;20246;-70
2020/12/22 12:04:53;;;;;;;0.80;0.80;;;12.70;99.90;;;;;;4915625;29;20199;-71
2020/12/22 12:07:19;;;;;;;0.65;0.65;;;12.60;99.90;;;;;;4915961;29;20547;-70
2020/12/22 12:09:45;;;;;;;0.70;0.70;;;12.60;99.90;;;;;;4914033;29;20859;-70
2020/12/22 12:12:11;;;;;;;0.40;0.40;;;12.50;99.90;;;;;;4915872;29;20241;-70
2020/12/22 12:14:37;;;;;;;0.95;0.95;;;12.50;99.90;;;;;;4915709;29;20213;-70
2020/12/22 12:17:04;;;;;;;0.63;0.63;;;12.40;99.90;;;;;;4915862;29;20206;-71
2020/12/22 12:19:32;;;;;;;0.30;0.30;;;12.40;99.90;;;;;;4914622;29;20625;-71
2020/12/22 12:21:59;;;;;;;0.40;0.40;;;12.30;99.90;;;;;;4915405;29;20230;-71
2020/12/22 12:24:25;;;;;;;0.65;0.65;;;12.30;99.90;;;;;;4915138;29;20270;-68
2020/12/22 12:26:51;;;;;;;0.90;0.90;;;12.20;99.90;;;;;;4916169;29;20218;-72
2020/12/22 12:29:18;;;;;;;0.70;0.70;;;12.10;99.90;;;;;;4915451;29;20221;-71
2020/12/22 12:31:46;;;;;;;1.48;0.80;;;11.90;99.90;;;;;;4925229;29;20230;-71
2020/12/22 12:34:13;;;;;;;1.00;0.70;;;11.80;99.90;;;;;;4925418;29;20217;-71
2020/12/22 12:36:39;;;;;;;1.13;1.13;;;11.70;99.90;;;;;;4915436;29;20202;-71
2020/12/22 12:39:05;;;;;;;0.70;0.70;;;11.70;99.90;;;;;;4915050;29;20218;-71
2020/12/22 12:41:31;;;;;;;1.40;1.30;;;11.60;99.90;;;;;;4914956;29;20226;-70
2020/12/22 12:43:58;;;;;;;1.10;1.10;;;11.60;99.90;;;;;;4914998;29;20226;-70
2020/12/22 12:46:25;;;;;;;1.50;1.40;;;11.50;99.90;;;;;;4914618;29;20214;-71
2020/12/22 12:48:54;;;;;;;1.55;1.50;;;11.40;99.90;;;;;;4914148;29;20238;-70
2020/12/22 12:51:21;;;;;;;1.50;1.40;;;11.30;99.90;;;;;;4915110;29;20248;-70
2020/12/22 12:53:47;;;;;;;3.35;2.53;;;11.20;99.90;;;;;;4915140;29;20199;-71
2020/12/22 12:56:14;;;;;;;1.95;1.88;;;11.20;99.90;;;;;;4914081;29;20210;-71
2020/12/22 12:58:41;;;;;;;1.30;1.25;;;11.20;99.90;;;;;;4914745;29;20348;-70
2020/12/22 13:01:07;;;;;;;1.35;1.35;;;11.10;99.90;;;;;;4915369;29;20239;-70
2020/12/22 13:03:33;;;;;;;1.05;1.05;;;11.10;99.90;;;;;;4914568;29;20784;-70
2020/12/22 13:05:59;;;;;;;1.90;1.70;;;11.10;99.90;;;;;;4915141;29;20269;-71
2020/12/22 13:08:26;;;;;;;1.75;1.75;;;11.00;99.90;;;;;;4914280;29;20575;-71
2020/12/22 13:10:52;;;;;;;1.33;1.33;;;11.00;99.90;;;;;;4914260;29;20569;-72
2020/12/22 13:13:18;;;;;;;1.70;1.55;;;11.00;99.90;;;;;;4914633;29;20254;-69
2020/12/22 13:15:45;;;;;;;1.70;1.70;;;10.90;99.90;;;;;;4915025;29;20523;-69
2020/12/22 13:18:11;;;;;;;1.67;1.67;;;10.90;99.90;;;;;;4913994;29;20210;-70
2020/12/22 13:20:37;;;;;;;1.80;1.73;;;10.90;99.90;;;;;;4914892;29;20226;-70
2020/12/22 13:23:03;;;;;;;1.10;1.10;;;10.90;99.90;;;;;;4914622;29;20226;-70
2020/12/22 13:25:30;;;;;;;2.10;2.00;;;10.80;99.90;;;;;;4913961;29;20210;-69
2020/12/22 13:27:56;;;;;;;3.35;1.30;;;10.80;99.90;;;;;;4914539;29;20214;-71
2020/12/22 13:30:22;;;;;;;2.92;1.50;;;10.80;99.90;;;;;;4914959;29;20233;-71
2020/12/22 13:32:48;;;;;;;1.80;1.70;;;10.70;99.90;;;;;;4914287;29;20202;-72
2020/12/22 13:35:14;;;;;;;2.58;1.58;;;10.70;99.90;;;;;;4907887;29;20266;-70
2020/12/22 13:37:41;;;;;;;1.60;1.50;;;10.60;99.90;;;;;;4913662;29;20608;-71
2020/12/22 13:40:07;;;;;;;1.10;1.10;;;10.60;99.90;;;;;;4913846;29;20285;-71
2020/12/22 13:42:34;;;;;;;1.85;1.48;;;10.60;99.90;;;;;;4914229;29;20225;-71
2020/12/22 13:45:00;;;;;;;1.38;1.38;;;10.60;99.90;;;;;;4917102;29;20210;-73
2020/12/22 13:47:26;;;;;;;3.08;1.55;;;10.60;99.90;;;;;;4917171;29;20298;-70
2020/12/22 13:49:52;;;;;;;1.48;1.30;;;10.60;99.90;;;;;;4918114;29;20202;-71
2020/12/22 13:52:18;;;;;;;2.15;1.33;;;10.50;99.90;;;;;;4918052;29;20583;-71
2020/12/22 13:54:44;;;;;;;1.40;1.00;;;10.50;99.90;;;;;;4925270;29;20207;-71
2020/12/22 13:57:11;;;;;;;2.20;2.05;;;10.50;99.90;;;;;;4918403;29;20206;-71
2020/12/22 13:59:38;;;;;;;4.22;1.73;;;10.50;99.90;;;;;;4918268;29;20210;-70
2020/12/22 14:02:04;;;;;;;3.10;1.52;;;10.50;99.90;;;;;;4917056;29;20230;-72
2020/12/22 14:04:30;;;;;;;4.53;1.40;;;10.50;99.90;;;;;;4915915;29;20286;-71
2020/12/22 14:06:57;;;;;;;2.83;1.88;;;10.50;99.90;;;;;;4914835;29;20226;-71
2020/12/22 14:09:23;;;;;;;2.28;1.70;;;10.40;99.90;;;;;;4917998;29;20214;-72
2020/12/22 14:11:49;;;;;;;6.70;2.53;;;10.40;99.90;;;;;;4918462;29;20238;-71
2020/12/22 14:14:16;;;;;;;2.13;1.98;;;10.30;99.90;;;;;;4911890;29;20203;-71
2020/12/22 14:16:43;;;;;;;1.98;1.73;;;10.30;99.90;;;;;;4907751;29;20692;-71
2020/12/22 14:19:10;;;;;;;1.15;1.15;;;10.30;99.90;;;;;;4918193;29;20305;-71
2020/12/22 14:21:36;;;;;;;2.15;1.35;;;10.30;99.90;;;;;;4917534;29;20277;-71
2020/12/22 14:24:02;;;;;;;1.55;1.30;;;10.30;99.90;;;;;;4917812;29;20249;-71
2020/12/22 14:26:28;;;;;;;2.80;1.40;;;10.20;99.90;;;;;;4917569;29;20219;-72
2020/12/22 14:28:54;;;;;;;2.80;1.42;;;10.20;99.90;;;;;;4915718;29;20294;-71
2020/12/22 14:31:21;;;;;;;1.40;1.30;;;10.20;99.90;;;;;;4917452;29;20577;-71
2020/12/22 14:33:48;;;;;;;1.55;1.40;;;10.20;99.90;;;;;;4917282;29;20352;-71
2020/12/22 14:36:18;;;;;;;1.33;1.33;;;10.20;99.90;;;;;;4918022;29;20663;-72
2020/12/22 14:38:46;;;;;;;1.40;1.40;;;10.10;99.90;;;;;;4919048;29;20315;-71
2020/12/22 14:41:12;;;;;;;3.42;1.73;;;10.10;99.90;;;;;;4917582;29;20230;-71
2020/12/22 14:43:38;;;;;;;1.00;1.00;;;10.10;99.90;;;;;;4918788;29;20290;-72
2020/12/22 14:46:05;;;;;;;3.53;0.95;;;10.10;99.90;;;;;;4917533;29;20235;-71
2020/12/22 14:48:31;;;;;;;1.25;0.90;;;10.00;99.90;;;;;;4904461;29;20214;-71
2020/12/22 14:50:58;;;;;;;1.33;1.23;;;10.00;99.90;;;;;;4918002;29;20658;-70
2020/12/22 14:53:24;;;;;;;3.28;1.30;;;10.00;99.90;;;;;;4918273;29;20661;-71
2020/12/22 14:55:53;;;;;;;1.95;1.50;;;10.00;99.90;;;;;;4916543;29;20215;-71
2020/12/22 14:58:19;;;;;;;1.00;1.00;;;10.00;99.90;;;;;;4916874;29;20215;-72
2020/12/22 15:00:46;;;;;;;3.17;1.45;;;10.00;99.90;;;;;;4915674;29;20683;-71
2020/12/22 15:03:12;;;;;;;1.95;1.23;;;9.90;99.90;;;;;;4916305;29;20865;-71
2020/12/22 15:05:38;;;;;;;1.40;1.00;;;9.90;99.90;;;;;;4917010;29;20631;-71
2020/12/22 15:08:05;;;;;;;0.93;0.93;;;9.90;99.90;;;;;;4916277;29;20217;-71
2020/12/22 15:10:31;;;;;;;0.98;0.98;;;9.90;99.90;;;;;;4915887;29;20230;-71
2020/12/22 15:12:57;;;;;;;1.00;1.00;;;9.90;99.90;;;;;;4916296;29;20209;-72
2020/12/22 15:15:23;;;;;;;0.88;0.80;;;9.90;99.90;;;;;;4917571;29;20211;-72
2020/12/22 15:17:51;;;;;;;1.48;1.05;;;9.90;99.90;;;;;;4916223;29;20238;-71
2020/12/22 15:20:17;;;;;;;2.17;1.00;;;9.90;99.90;;;;;;4916803;29;20222;-71
2020/12/22 15:22:43;;;;;;;1.50;1.38;;;9.80;99.90;;;;;;4915219;29;20226;-72
2020/12/22 15:25:10;;;;;;;1.00;0.93;;;9.80;99.90;;;;;;4916227;29;20206;-71
2020/12/22 15:27:36;;;;;;;1.67;0.90;;;9.80;99.90;;;;;;4915451;29;20207;-71
2020/12/22 15:30:03;;;;;;;0.70;0.70;;;9.70;99.90;;;;;;4915775;29;20564;-71
2020/12/22 15:32:31;;;;;;;1.48;0.75;;;9.80;99.90;;;;;;4915663;29;20305;-71
2020/12/22 15:34:57;;;;;;;1.15;1.05;;;9.70;99.90;;;;;;4916165;29;20551;-72
2020/12/22 15:37:24;;;;;;;0.43;0.43;;;9.70;99.90;;;;;;4915874;29;20558;-72
2020/12/22 15:39:50;;;;;;;2.83;0.70;;;9.60;99.90;;;;;;4915146;29;20206;-71
2020/12/22 15:42:17;;;;;;;2.85;1.08;;;9.60;99.90;;;;;;4915978;29;20261;-71
2020/12/22 15:44:43;;;;;;;1.90;0.80;;;9.60;99.90;;;;;;4912800;29;20237;-71
2020/12/22 15:47:09;;;;;;;1.10;1.10;;;9.60;99.90;;;;;;4916044;29;20227;-71
2020/12/22 15:49:36;;;;;;;1.33;1.33;;;9.60;99.90;;;;;;4915810;29;20648;-71
2020/12/22 15:52:02;;;;;;;1.65;1.55;;;9.60;99.90;;;;;;4915943;29;20278;-71
2020/12/22 15:54:29;;;;;;;1.40;1.10;;;9.60;99.90;;;;;;4915432;29;20206;-71
2020/12/22 15:56:55;;;;;;;2.30;2.20;;;9.60;99.90;;;;;;4915679;29;20222;-72
2020/12/22 15:59:22;;;;;;;1.77;1.60;;;9.50;99.90;;;;;;4916221;29;20643;-72
2020/12/22 16:01:48;;;;;;;5.47;3.67;;;9.50;99.90;;;;;;4915373;29;20241;-71
2020/12/22 16:04:14;;;;;;;1.42;1.42;;;9.50;99.90;;;;;;4916077;29;20242;-72
2020/12/22 16:06:43;;;;;;;1.70;1.58;;;9.40;99.90;;;;;;4914240;29;20219;-71
2020/12/22 16:09:10;;;;;;;2.88;2.00;;;9.40;99.90;;;;;;4916002;29;20671;-72
2020/12/22 16:11:36;;;;;;;3.65;1.65;;;9.40;99.90;;;;;;4915519;29;20230;-71
2020/12/22 16:14:03;;;;;;;2.78;2.15;;;9.40;99.90;;;;;;4916087;29;20233;-71
2020/12/22 16:16:30;;;;;;;3.53;2.85;;;9.30;99.90;;;;;;4915644;29;20233;-72
2020/12/22 16:18:57;;;;;;;2.75;1.20;;;9.20;99.90;;;;;;4915860;29;20595;-72
2020/12/22 16:21:23;;;;;;;2.95;2.75;;;9.10;99.90;;;;;;4915430;29;20286;-71
2020/12/22 16:23:50;;;;;;;1.15;1.15;;;9.10;99.90;;;;;;4915192;29;20341;-71
2020/12/22 16:26:17;;;;;;;2.88;1.48;;;9.00;99.90;;;;;;4915103;29;20217;-71
2020/12/22 16:28:44;;;;;;;4.65;1.65;;;9.00;99.90;;;;;;4916124;29;20298;-71
2020/12/22 16:31:11;;;;;;;1.55;1.45;;;9.00;99.90;;;;;;4915432;29;20222;-72
2020/12/22 16:33:39;;;;;;;2.65;1.50;;;9.00;99.90;;;;;;4915608;29;20242;-72
2020/12/22 16:36:06;;;;;;;3.22;2.25;;;9.00;99.90;;;;;;4915074;29;20550;-71
2020/12/22 16:38:33;;;;;;;2.55;2.00;;;9.00;99.90;;;;;;4915165;29;20217;-71
2020/12/22 16:41:00;;;;;;;5.07;1.63;;;9.00;99.90;;;;;;4914482;29;20230;-71
2020/12/22 16:43:26;;;;;;;4.25;2.03;;;9.00;99.90;;;;;;4914451;29;20616;-71
2020/12/22 16:45:52;;;;;;;3.67;2.25;;;9.00;99.90;;;;;;4914685;29;20676;-72
2020/12/22 16:48:18;;;;;;;3.88;2.33;;;9.00;99.90;;;;;;4914730;29;20203;-71
2020/12/22 16:50:45;;;;;;;1.88;1.77;;;8.90;99.90;;;;;;4914400;29;20238;-72
2020/12/22 16:53:12;;;;;;;4.15;2.78;;;8.90;99.90;;;;;;4913963;29;20211;-71
2020/12/22 16:55:38;;;;;;;3.97;3.55;;;8.80;99.90;;;;;;4914802;29;20206;-71
2020/12/22 16:58:05;;;;;;;2.53;2.22;;;8.80;99.90;;;;;;4915215;29;20234;-71
2020/12/22 17:00:31;;;;;;;4.10;3.00;;;8.80;99.90;;;;;;4914579;29;20226;-71
2020/12/22 17:02:57;;;;;;;4.13;3.42;;;8.70;99.90;;;;;;4913505;29;20229;-71
2020/12/22 17:05:23;;;;;;;8.32;2.80;;;8.70;99.90;;;;;;4915171;29;20234;-71
2020/12/22 17:07:50;;;;;;;6.10;4.10;;;8.70;99.90;;;;;;4914751;29;20512;-70
2020/12/22 17:10:17;;;;;;;8.55;4.07;;;8.60;99.90;;;;;;4914565;29;20245;-71
2020/12/22 17:12:43;;;;;;;2.83;2.70;;;8.50;99.90;;;;;;4915151;29;20309;-71
2020/12/22 17:15:09;;;;;;;5.80;3.17;;;8.50;99.90;;;;;;4914241;29;20334;-70
2020/12/22 17:17:37;;;;;;;6.93;4.68;;;8.40;99.90;;;;;;4913626;29;20225;-70
2020/12/22 17:20:05;;;;;;;3.42;3.05;;;8.40;99.90;;;;;;4913610;29;20643;-70
2020/12/22 17:22:31;;;;;;;10.48;3.70;;;8.40;99.90;;;;;;4918767;29;20321;-70
2020/12/22 17:24:58;;;;;;;10.32;3.97;;;8.30;99.90;;;;;;4914712;29;20558;-70
2020/12/22 17:27:25;;;;;;;5.68;3.30;;;8.30;99.90;;;;;;4918591;29;20279;-70
2020/12/22 17:29:51;;;;;;;5.82;3.40;;;8.20;99.90;;;;;;4918240;29;20229;-71
2020/12/22 17:32:18;;;;;;;9.90;3.80;;;8.20;99.90;;;;;;4918675;29;20226;-71
2020/12/22 17:34:44;;;;;;;7.05;3.20;;;8.20;99.90;;;;;;4919134;29;20412;-71
2020/12/22 17:37:10;;;;;;;3.80;2.58;;;8.10;99.90;;;;;;4918755;29;20210;-71
2020/12/22 17:39:37;;;;;;;12.00;5.95;;;8.10;99.90;;;;;;4917689;29;20257;-70
2020/12/22 17:42:04;;;;;;;10.95;3.88;;;8.00;99.90;;;;;;4919019;29;20234;-70
2020/12/22 17:44:30;;;;;;;4.93;3.40;;;8.00;99.90;;;;;;4917587;29;20230;-70
2020/12/22 17:46:57;;;;;;;9.02;3.42;;;8.00;99.90;;;;;;4918410;29;20210;-70
2020/12/22 17:49:23;;;;;;;6.18;3.22;;;8.00;99.90;;;;;;4918735;29;20673;-70